Terminal Aerodrome Forecast
Issued by NWS

Home | Current Version | Previous Version | Text Only | Print | Product List | Glossary On
Versions: 1 2 3 4 5 6 7 8 9 10 11 12 13 14 15
000
FTUS43 KMQT 311828 AAA
TAFSAW
TAF AMD
KSAW 311828Z 3118/0118 28017G24KT P6SM VCSH SCT050
     FM312300 31009KT P6SM SCT060
     FM010200 28006KT P6SM FEW110=

USA.gov is the U.S. government's official web portal to all federal, state and local government web resources and services.